Port Alsworth, AK

11:17 PM AKDT on April 23, 2017 (GMT -0800)
Iliamna | | Change Station

Elev 184 ft 59.75 °N, 154.91 °W | Updated 24 minutes ago

Mostly Cloudy
Mostly Cloudy
41 °F
Feels Like 38 °F
N
5
Wind Variable Wind from ESE

Today
High -- | Low -- °F
--% Chance of Precip.
Yesterday
High -- | Low -- °F
Precip. -- in
Pressure 29.60 in
Visibility 10.0 miles
Clouds Mostly Cloudy 3900 ft
Mostly Cloudy 4700 ft
Overcast 6500 ft
Windchill 38 °F
Dew Point 35 °F
Humidity 79%
Rainfall 0.01 in
Snow Depth Not available.
6:35 AM 9:57 PM
Waning Crescent, 7% visible
METAR PAIL 240653Z AUTO 12004KT 10SM BKN039 BKN047 OVC065 05/02 A2960 RMK AO2 SLP024 T00500017 TSNO
Pressure 29.60 in
Visibility 10.0 miles
Clouds Mostly Cloudy 3900 ft
Mostly Cloudy 4700 ft
Overcast 6500 ft
Windchill 38 °F
Dew Point 35 °F
Humidity 79%
Rainfall 0.01 in
Snow Depth Not available.
6:35 AM 9:57 PM
Waning Crescent, 7% visible
METAR PAIL 240653Z AUTO 12004KT 10SM BKN039 BKN047 OVC065 05/02 A2960 RMK AO2 SLP024 T00500017 TSNO

Get Severe Weather Alerts

Thanks for signing up!

Be on the lookout for a verification email in your inbox.

You'll start receiving the daily forecast at 8 AM.

×

10-Day Weather Forecast

Almanac

Astronomy

Apr. 23, 2017 Rise Set
Actual Time
Civil Twilight
Nautical Twilight
Astronomical Twilight
Moon
Length of Visible Light
Length of Day
Tomorrow will be .
, % of the Moon is Illuminated

Today's Extremes

State Highs State Lows

Community

WunderPhotos

WunderBlog® & News

Nearby

Air Quality

  Air Quality AQ Index Pollutant
Not available.

Snow Depth

Station Depth Elevation

Earthquake Activity

City Distance Mag. Time & Date
Minimum magnitude displayed is 2.5.

Coastal Water Temperatures

Place Temperature

Stations

Nearby Weather Stations

Station Location Temp. Windchill Dew Point Humidity Wind Precip. Elev Updated Type
                   

Watches & Warnings

There are currently no watches in effect.